CDT,Max TemperatureF,Mean TemperatureF,Min TemperatureF,Max Dew PointF,MeanDew PointF,Min DewpointF,Max Humidity, Mean Humidity, Min Humidity, Max Sea Level PressureIn, Mean Sea Level PressureIn, Min Sea Level PressureIn, Max VisibilityMiles, Mean VisibilityMiles, Min VisibilityMiles, Max Wind SpeedMPH, Mean Wind SpeedMPH, Max Gust SpeedMPH,PrecipitationIn, CloudCover, Events, WindDirDegrees
2012-10-1,69,64,59,70,61,57,100,97,88,29.79,29.65,29.54,10,4,0,12,8,16,0.00,8,Fog-Rain,280
2012-10-2,75,65,55,61,57,52,100,81,44,30.01,29.90,29.78,10,8,1,8,2,,0.00,1,,299
2012-10-3,80,66,53,66,60,54,100,84,51,30.15,30.08,30.01,10,8,3,9,1,,0.00,1,Thunderstorm,160
2012-10-4,82,70,59,70,64,59,100,84,48,30.26,30.20,30.15,10,6,1,6,0,,0.00,0,,115
2012-10-5,82,70,57,68,62,57,100,81,42,30.19,30.12,30.03,10,7,2,5,0,,0.00,0,,139
2012-10-6,71,62,53,63,59,54,100,90,69,30.11,30.06,30.03,10,6,0,12,3,,0.00,4,Fog,334
2012-10-7,60,54,48,54,49,46,100,87,63,30.20,30.15,30.10,10,8,1,12,7,,0.00,6,,352
2012-10-8,64,55,46,52,48,45,100,81,56,30.23,30.16,30.12,10,10,10,12,4,,0.00,3,,348
2012-10-9,73,58,42,61,50,43,100,83,47,30.18,30.11,30.04,10,9,1,7,1,,0.00,0,,144
2012-10-10,78,66,53,66,61,54,100,85,57,30.21,30.15,30.10,10,8,2,7,2,,0.00,3,,287
2012-10-11,82,70,57,70,63,57,100,86,54,30.27,30.22,30.18,10,6,2,6,0,,0.00,2,,108
2012-10-12,82,70,57,70,63,57,100,85,51,30.31,30.24,30.21,10,5,2,6,0,,0.00,0,,109
2012-10-13,82,70,57,68,63,57,100,82,51,30.25,30.18,30.11,10,6,0,12,3,18,0.00,1,Fog,159
2012-10-14,82,76,69,72,70,66,100,85,62,30.18,30.07,30.01,10,7,2,14,7,20,0.26,4,Rain-Thunderstorm,172
2012-10-15,78,66,53,70,59,46,100,78,34,30.08,30.03,29.97,10,9,0,10,3,,0.01,1,Fog,348
2012-10-16,75,62,48,63,55,48,100,81,44,30.03,29.96,29.87,10,10,5,8,1,,0.00,0,,127
2012-10-17,80,66,53,72,61,52,100,80,61,29.88,29.81,29.73,10,10,9,17,4,22,0.00,2,,164
2012-10-18,75,63,51,72,53,37,100,69,25,29.95,29.87,29.73,10,10,2,15,7,24,0.12,1,Rain-Thunderstorm,335
2012-10-19,75,60,44,48,42,32,100,65,22,29.96,29.92,29.87,10,10,7,18,4,25,0.00,0,,254
2012-10-20,78,60,42,57,46,37,100,72,24,30.03,29.98,29.94,10,10,5,6,0,,0.00,0,,244
2012-10-21,80,64,48,59,53,48,100,75,37,30.13,30.08,30.00,10,10,6,10,2,,0.00,1,,155
2012-10-22,80,64,48,63,56,48,100,78,42,30.17,30.11,30.07,10,10,5,7,1,,0.00,0,,125
2012-10-23,80,68,55,66,62,55,100,85,54,30.14,30.08,30.04,10,7,0,8,1,,0.00,2,Fog,147
2012-10-24,80,70,60,66,64,59,100,86,54,30.14,30.07,30.02,10,6,0,7,1,,0.00,3,Fog,133
2012-10-25,82,70,57,68,63,57,100,85,51,30.06,30.00,29.95,10,7,0,8,1,,0.00,2,Fog,138
2012-10-26,77,62,46,66,58,45,100,87,65,30.12,30.03,29.97,10,8,0,15,4,21,0.00,3,Fog,329
2012-10-27,57,50,44,45,43,39,93,81,58,30.12,30.07,30.01,10,10,8,14,9,20,0.00,5,,337
2012-10-28,60,48,37,39,36,32,93,67,34,30.18,30.11,30.07,10,10,9,16,8,24,0.00,0,,322
2012-10-29,60,48,37,36,33,27,93,63,29,30.24,30.17,30.11,10,10,9,15,6,23,0.00,0,,327
2012-10-30,64,50,35,45,37,32,100,66,34,30.13,30.07,30.00,10,10,8,14,4,20,0.00,0,,292
2012-10-31,75,58,42,57,51,41,100,78,47,30.06,30.01,29.96,10,9,3,12,2,17,0.00,1,,260